Time;durP1;ratioP1;P1;durP2;ratioP2;P2;SDS_P1;SDS_P2;PMS_P1;PMS_P2;Temp;Humidity;BMP_temperature;BMP_pressure;BME280_temperature;BME280_humidity;BME280_pressure;Samples;Min_cycle;Max_cycle;Signal;HPM_P1;HPM_P2
2021/12/22 00:01:35;;;;;;;29.52;16.42;;;-2.30;99.90;;;;;;5033977;28;20467;-76
2021/12/22 00:04:01;;;;;;;27.80;16.20;;;-2.30;99.90;;;;;;5062574;28;20045;-76
2021/12/22 00:06:29;;;;;;;27.75;14.88;;;-2.30;99.90;;;;;;5021003;28;20053;-76
2021/12/22 00:08:54;;;;;;;36.55;16.55;;;-2.40;99.90;;;;;;5028544;28;20132;-77
2021/12/22 00:11:20;;;;;;;29.25;15.57;;;-2.40;99.90;;;;;;5046974;28;20105;-76
2021/12/22 00:13:46;;;;;;;25.65;15.68;;;-2.40;99.90;;;;;;5007623;28;20176;-76
2021/12/22 00:16:12;;;;;;;24.90;15.38;;;-2.50;99.90;;;;;;5016117;28;20052;-75
2021/12/22 00:18:37;;;;;;;31.98;15.98;;;-2.50;99.90;;;;;;5004849;28;20049;-76
2021/12/22 00:21:04;;;;;;;29.35;16.15;;;-2.50;99.90;;;;;;4994754;28;20054;-75
2021/12/22 00:23:29;;;;;;;32.92;16.13;;;-2.50;99.90;;;;;;5020413;28;20255;-76
2021/12/22 00:25:56;;;;;;;32.50;16.60;;;-2.50;99.90;;;;;;5020328;28;20239;-76
2021/12/22 00:28:22;;;;;;;27.80;15.73;;;-2.50;99.90;;;;;;5022286;28;20060;-77
2021/12/22 00:30:49;;;;;;;31.17;15.85;;;-2.50;99.90;;;;;;5029391;28;20385;-75
2021/12/22 00:33:15;;;;;;;30.42;16.73;;;-2.50;99.90;;;;;;5032911;28;20048;-75
2021/12/22 00:35:44;;;;;;;28.23;15.73;;;-2.50;99.90;;;;;;4997677;28;20045;-76
2021/12/22 00:38:12;;;;;;;25.95;15.13;;;-2.50;99.90;;;;;;4993861;28;20100;-75
2021/12/22 00:40:40;;;;;;;28.38;16.30;;;-2.50;99.90;;;;;;4992467;28;20116;-77
2021/12/22 00:43:05;;;;;;;35.53;16.70;;;-2.50;99.90;;;;;;5013683;28;20042;-77
2021/12/22 00:45:32;;;;;;;27.60;16.13;;;-2.50;99.90;;;;;;5005986;28;20033;-75
2021/12/22 00:47:58;;;;;;;28.20;15.57;;;-2.50;99.90;;;;;;4984479;28;20045;-77
2021/12/22 00:50:24;;;;;;;23.08;15.00;;;-2.50;99.90;;;;;;4992166;28;20462;-77
2021/12/22 00:52:50;;;;;;;28.17;15.60;;;-2.50;99.90;;;;;;4988030;28;20087;-76
2021/12/22 00:55:19;;;;;;;27.52;14.60;;;-2.50;99.90;;;;;;5013475;28;20042;-76
2021/12/22 00:57:49;;;;;;;27.58;15.50;;;-2.50;99.90;;;;;;5008198;28;20438;-76
2021/12/22 01:00:17;;;;;;;23.17;14.63;;;-2.60;99.90;;;;;;4994024;28;20034;-76
2021/12/22 01:02:43;;;;;;;33.83;16.17;;;-2.30;99.90;;;;;;5011417;28;20508;-76
2021/12/22 01:05:12;;;;;;;27.83;14.63;;;-2.60;99.90;;;;;;4991485;28;20128;-75
2021/12/22 01:07:43;;;;;;;27.85;15.52;;;-2.60;99.90;;;;;;5008153;28;20501;-76
2021/12/22 01:10:11;;;;;;;31.05;14.75;;;-2.60;99.90;;;;;;4992358;28;20046;-76
2021/12/22 01:12:37;;;;;;;30.00;16.60;;;-2.60;99.90;;;;;;4983645;28;20042;-76
2021/12/22 01:15:07;;;;;;;29.83;15.48;;;-2.70;99.90;;;;;;4986628;28;20085;-77
2021/12/22 01:17:39;;;;;;;27.65;14.85;;;-2.70;99.90;;;;;;5013212;28;20049;-76
2021/12/22 01:20:15;;;;;;;26.25;14.50;;;-2.70;99.90;;;;;;4984872;28;20116;-76
2021/12/22 01:25:08;;;;;;;30.60;15.85;;;-2.80;99.90;;;;;;4995466;28;20098;-76
2021/12/22 01:27:40;;;;;;;25.38;14.88;;;-2.80;99.90;;;;;;4966248;28;20118;-75
2021/12/22 01:30:26;;;;;;;27.38;14.75;;;-2.80;99.90;;;;;;4989757;28;20038;-77
2021/12/22 01:32:54;;;;;;;22.42;13.98;;;-2.90;99.90;;;;;;4996271;28;20042;-76
2021/12/22 01:35:23;;;;;;;24.20;15.05;;;-2.90;99.90;;;;;;5058005;28;20133;-77
2021/12/22 01:37:49;;;;;;;30.73;15.52;;;-2.90;99.90;;;;;;5021965;28;20033;-77
2021/12/22 01:40:16;;;;;;;26.27;14.93;;;-2.90;99.90;;;;;;5056493;28;20496;-75
2021/12/22 01:42:43;;;;;;;26.85;15.70;;;-2.90;99.90;;;;;;5022101;28;20501;-75
2021/12/22 01:45:53;;;;;;;26.08;15.40;;;-3.00;99.90;;;;;;5041177;28;20392;-77
2021/12/22 01:51:28;;;;;;;24.80;15.18;;;-3.00;99.90;;;;;;5032563;28;20056;-76
2021/12/22 01:54:01;;;;;;;25.02;15.20;;;-3.00;99.90;;;;;;5029003;28;20037;-75
2021/12/22 01:56:29;;;;;;;24.13;15.25;;;-3.00;99.90;;;;;;5032257;28;20037;-76
2021/12/22 01:58:58;;;;;;;28.08;15.45;;;-3.00;99.90;;;;;;5048520;28;20400;-76
2021/12/22 02:01:25;;;;;;;34.00;16.75;;;-3.00;99.90;;;;;;5020541;28;20049;-76
2021/12/22 02:04:10;;;;;;;31.98;16.52;;;-3.00;99.90;;;;;;5020400;28;20038;-75
2021/12/22 02:06:37;;;;;;;28.50;16.50;;;-3.00;99.90;;;;;;5035541;28;20049;-75
2021/12/22 02:09:03;;;;;;;28.58;16.40;;;-3.00;99.90;;;;;;5036371;28;20094;-74
2021/12/22 02:11:28;;;;;;;31.83;17.02;;;-3.00;99.90;;;;;;5060346;28;20041;-75
2021/12/22 02:14:01;;;;;;;32.63;15.93;;;-3.00;99.90;;;;;;5032487;28;20041;-77
2021/12/22 02:16:29;;;;;;;29.92;16.92;;;-3.00;99.90;;;;;;5023834;28;20041;-77
2021/12/22 02:18:55;;;;;;;35.38;16.80;;;-2.90;99.90;;;;;;5042103;28;20384;-77
2021/12/22 02:21:24;;;;;;;32.70;18.05;;;-2.90;99.90;;;;;;5049329;28;20044;-77
2021/12/22 02:23:50;;;;;;;35.13;19.33;;;-2.90;99.90;;;;;;5021851;28;20045;-77
2021/12/22 02:26:21;;;;;;;33.22;18.30;;;-2.80;99.90;;;;;;5029852;28;20041;-76
2021/12/22 02:28:55;;;;;;;35.53;17.92;;;-2.90;99.90;;;;;;5020280;28;20069;-77
2021/12/22 02:31:21;;;;;;;28.42;18.27;;;-2.80;99.90;;;;;;5061218;28;20048;-77
2021/12/22 02:33:49;;;;;;;33.55;18.48;;;-2.80;99.90;;;;;;5055225;28;20045;-77
2021/12/22 02:39:05;;;;;;;34.13;17.85;;;-2.80;99.90;;;;;;5019067;28;20052;-77
2021/12/22 02:41:32;;;;;;;31.63;17.75;;;-2.80;99.90;;;;;;5032551;28;20045;-76
2021/12/22 02:44:00;;;;;;;31.33;18.70;;;-2.80;99.90;;;;;;5025808;28;20041;-77
2021/12/22 02:46:32;;;;;;;31.35;17.75;;;-2.80;99.90;;;;;;5001449;28;20505;-76
2021/12/22 02:49:00;;;;;;;35.58;18.92;;;-2.80;99.90;;;;;;5024786;28;20042;-77
2021/12/22 02:51:28;;;;;;;34.38;18.55;;;-2.70;99.90;;;;;;5019800;28;20040;-75
2021/12/22 02:54:17;;;;;;;27.80;18.35;;;-2.80;99.90;;;;;;5067566;28;20067;-78
2021/12/22 03:04:49;;;;;;;28.55;17.60;;;-2.80;99.90;;;;;;5010729;28;20578;-77
2021/12/22 03:07:17;;;;;;;27.33;17.65;;;-2.80;99.90;;;;;;4993826;28;20061;-75
2021/12/22 03:09:43;;;;;;;29.02;18.13;;;-2.70;99.90;;;;;;5030085;28;20045;-76
2021/12/22 03:12:12;;;;;;;34.05;18.33;;;-2.80;99.90;;;;;;4992799;28;20076;-76
2021/12/22 03:14:39;;;;;;;31.60;18.17;;;-2.80;99.90;;;;;;4994371;28;20042;-76
2021/12/22 03:17:04;;;;;;;38.28;17.67;;;-2.80;99.90;;;;;;5009537;28;20081;-76
2021/12/22 03:19:34;;;;;;;34.35;18.20;;;-2.80;99.90;;;;;;5020241;28;20474;-75
2021/12/22 03:22:04;;;;;;;29.52;17.60;;;-2.80;99.90;;;;;;4993202;28;20058;-75
2021/12/22 03:24:32;;;;;;;33.03;17.38;;;-2.80;99.90;;;;;;4979080;28;20049;-76
2021/12/22 03:27:02;;;;;;;30.10;17.35;;;-2.80;99.90;;;;;;5008101;28;20049;-75
2021/12/22 03:29:28;;;;;;;31.08;16.92;;;-2.90;99.90;;;;;;4998047;28;20053;-75
2021/12/22 03:31:54;;;;;;;35.28;20.52;;;-2.80;99.90;;;;;;4992865;28;20073;-75
2021/12/22 03:34:20;;;;;;;33.67;19.13;;;-2.90;99.90;;;;;;4975799;28;20105;-76
2021/12/22 03:36:46;;;;;;;32.72;18.42;;;-2.90;99.90;;;;;;5012867;28;20050;-74
2021/12/22 03:39:13;;;;;;;30.60;18.33;;;-2.90;99.90;;;;;;4993598;28;20041;-77
2021/12/22 03:41:40;;;;;;;36.92;18.92;;;-2.90;99.90;;;;;;5010400;28;20045;-76
2021/12/22 03:44:07;;;;;;;32.70;18.83;;;-2.90;99.90;;;;;;5029587;28;20107;-75
2021/12/22 03:46:34;;;;;;;35.38;19.65;;;-2.90;99.90;;;;;;5041743;28;20172;-75
2021/12/22 03:49:00;;;;;;;38.95;19.52;;;-2.90;99.90;;;;;;5018868;28;20136;-75
2021/12/22 03:51:27;;;;;;;30.95;18.55;;;-3.00;99.90;;;;;;5008095;28;20059;-77
2021/12/22 03:53:53;;;;;;;34.55;19.45;;;-3.00;99.90;;;;;;5059983;28;20049;-75
2021/12/22 03:56:19;;;;;;;35.72;19.27;;;-3.00;99.90;;;;;;5069007;28;20373;-75
2021/12/22 03:58:45;;;;;;;32.88;19.00;;;-3.00;99.90;;;;;;5046139;28;20110;-73
2021/12/22 04:01:11;;;;;;;33.95;19.15;;;-2.90;99.90;;;;;;5021960;28;20049;-75
2021/12/22 04:03:38;;;;;;;37.15;19.65;;;-3.00;99.90;;;;;;5044280;28;20105;-75
2021/12/22 04:06:05;;;;;;;33.03;17.83;;;-3.00;99.90;;;;;;5055523;28;20128;-76
2021/12/22 04:08:30;;;;;;;34.38;18.60;;;-3.00;99.90;;;;;;5017301;28;20384;-76
2021/12/22 04:10:56;;;;;;;35.40;19.15;;;-3.00;99.90;;;;;;5031990;28;20032;-77
2021/12/22 04:13:22;;;;;;;30.63;16.83;;;-2.90;99.90;;;;;;5031924;28;20475;-75
2021/12/22 04:15:48;;;;;;;32.75;17.63;;;-3.00;99.90;;;;;;5013248;28;20057;-78
2021/12/22 04:18:15;;;;;;;31.65;17.98;;;-3.00;99.90;;;;;;5014961;28;20053;-75
2021/12/22 04:20:41;;;;;;;33.67;17.35;;;-3.00;99.90;;;;;;5026739;28;20122;-76
2021/12/22 04:23:07;;;;;;;32.75;18.10;;;-3.00;99.90;;;;;;5029308;28;20044;-76
2021/12/22 04:25:35;;;;;;;30.02;17.80;;;-3.00;99.90;;;;;;5031552;28;20472;-75
2021/12/22 04:28:07;;;;;;;30.80;16.83;;;-3.00;99.90;;;;;;5031703;28;20049;-76
2021/12/22 04:30:38;;;;;;;29.92;17.65;;;-3.00;99.90;;;;;;5019842;28;20130;-75
2021/12/22 04:33:04;;;;;;;30.20;17.65;;;-3.00;99.90;;;;;;5018035;28;20439;-75
2021/12/22 04:35:31;;;;;;;31.85;17.77;;;-3.00;99.90;;;;;;5063943;28;20048;-75
2021/12/22 04:37:57;;;;;;;27.60;16.67;;;-3.10;99.90;;;;;;5028801;28;20130;-75
2021/12/22 04:40:23;;;;;;;37.33;18.60;;;-3.10;99.90;;;;;;5018059;28;20509;-76
2021/12/22 04:42:49;;;;;;;29.48;16.65;;;-3.10;99.90;;;;;;5066219;28;20076;-76
2021/12/22 04:45:15;;;;;;;34.85;16.75;;;-3.10;99.90;;;;;;5017407;28;20045;-75
2021/12/22 04:47:41;;;;;;;27.60;16.77;;;-2.70;99.90;;;;;;5064952;28;20036;-75
2021/12/22 04:50:13;;;;;;;36.25;17.23;;;-3.10;99.90;;;;;;5048045;28;20056;-75
2021/12/22 04:52:50;;;;;;;29.50;16.33;;;-3.10;99.90;;;;;;5049910;28;20033;-77
2021/12/22 04:55:16;;;;;;;30.35;16.75;;;-3.20;99.90;;;;;;5045921;28;20049;-76
2021/12/22 04:57:42;;;;;;;32.67;16.05;;;-3.20;99.90;;;;;;5077192;28;20036;-75
2021/12/22 05:00:10;;;;;;;32.90;16.67;;;-3.20;99.90;;;;;;5044587;28;20140;-76
2021/12/22 05:02:37;;;;;;;33.72;15.90;;;-3.20;99.90;;;;;;5015959;28;20128;-76
2021/12/22 05:05:03;;;;;;;30.30;16.70;;;-3.20;99.90;;;;;;5061750;28;20120;-76
2021/12/22 05:07:29;;;;;;;29.95;16.50;;;-3.20;99.90;;;;;;5028928;28;20101;-76
2021/12/22 05:09:54;;;;;;;29.80;17.02;;;-3.20;99.90;;;;;;5042212;28;20044;-77
2021/12/22 05:12:20;;;;;;;27.48;16.00;;;-3.20;99.90;;;;;;5032996;28;20069;-76
2021/12/22 05:14:49;;;;;;;27.42;16.10;;;-3.20;99.90;;;;;;5032038;28;20512;-75
2021/12/22 05:17:21;;;;;;;32.17;16.58;;;-3.20;99.90;;;;;;5056450;28;20032;-76
2021/12/22 05:19:47;;;;;;;31.50;16.58;;;-3.30;99.90;;;;;;5031318;28;20044;-76
2021/12/22 05:22:13;;;;;;;33.55;16.30;;;-3.30;99.90;;;;;;5025976;28;20045;-75
2021/12/22 05:24:39;;;;;;;28.83;16.45;;;-3.50;99.90;;;;;;5028600;28;20132;-75
2021/12/22 05:27:11;;;;;;;27.85;15.70;;;-3.30;99.90;;;;;;5041822;28;20128;-76
2021/12/22 05:29:37;;;;;;;30.23;16.27;;;-3.30;99.90;;;;;;5041348;28;20053;-75
2021/12/22 05:32:07;;;;;;;24.55;15.00;;;-3.30;99.90;;;;;;5021106;28;20046;-74
2021/12/22 05:34:36;;;;;;;25.80;14.90;;;-3.30;99.90;;;;;;5049797;28;20045;-75
2021/12/22 05:37:02;;;;;;;27.27;15.68;;;-3.30;99.90;;;;;;5026483;28;20119;-76
2021/12/22 05:39:27;;;;;;;29.40;15.68;;;-3.30;99.90;;;;;;5040190;28;20072;-75
2021/12/22 05:41:54;;;;;;;29.15;14.52;;;-3.30;99.90;;;;;;5070124;28;20057;-76
2021/12/22 05:44:20;;;;;;;28.80;15.68;;;-3.30;99.90;;;;;;5035430;28;20058;-77
2021/12/22 05:46:45;;;;;;;29.15;15.88;;;-3.30;99.90;;;;;;5032033;28;20340;-77
2021/12/22 05:49:11;;;;;;;28.05;15.55;;;-3.30;99.90;;;;;;5053907;28;20045;-76
2021/12/22 05:51:37;;;;;;;29.90;16.25;;;-3.40;99.90;;;;;;5030544;28;20404;-75
2021/12/22 05:54:03;;;;;;;30.13;15.07;;;-3.40;99.90;;;;;;5030324;28;20475;-76
2021/12/22 05:56:30;;;;;;;29.58;16.63;;;-3.40;99.90;;;;;;5070429;28;20120;-76
2021/12/22 05:58:56;;;;;;;29.33;15.73;;;-3.40;99.90;;;;;;5042900;28;20128;-75
2021/12/22 06:01:22;;;;;;;26.30;15.02;;;-3.40;99.90;;;;;;5042462;28;20048;-76
2021/12/22 06:03:47;;;;;;;29.25;15.38;;;-3.40;99.90;;;;;;5051385;28;20117;-76
2021/12/22 06:06:13;;;;;;;28.58;15.85;;;-3.40;99.90;;;;;;5047433;28;20079;-76
2021/12/22 06:08:39;;;;;;;29.98;15.02;;;-3.50;99.90;;;;;;5047302;28;20140;-75
2021/12/22 06:11:05;;;;;;;27.27;15.52;;;-3.50;99.90;;;;;;5046541;28;20116;-76
2021/12/22 06:13:30;;;;;;;28.33;15.52;;;-3.50;99.90;;;;;;5027922;28;20062;-76
2021/12/22 06:15:56;;;;;;;29.98;15.15;;;-3.50;99.90;;;;;;5066461;28;20564;-76
2021/12/22 06:18:22;;;;;;;28.75;15.30;;;-3.50;99.90;;;;;;5037689;28;20044;-75
2021/12/22 06:20:48;;;;;;;30.00;15.70;;;-3.50;99.90;;;;;;5028111;28;20053;-76
2021/12/22 06:23:14;;;;;;;27.77;14.93;;;-3.50;99.90;;;;;;5042931;28;20049;-77
2021/12/22 06:25:40;;;;;;;26.15;14.90;;;-3.50;99.90;;;;;;5051369;28;20045;-77
2021/12/22 06:28:06;;;;;;;26.58;14.60;;;-3.60;99.90;;;;;;5013089;28;20041;-77
2021/12/22 06:30:32;;;;;;;31.23;15.07;;;-3.60;99.90;;;;;;5022564;28;20056;-77
2021/12/22 06:32:58;;;;;;;28.83;15.13;;;-3.60;99.90;;;;;;5034350;28;20041;-76
2021/12/22 06:35:24;;;;;;;28.40;15.05;;;-3.60;99.90;;;;;;5052191;28;20075;-77
2021/12/22 06:37:51;;;;;;;26.70;14.75;;;-3.60;99.90;;;;;;5040951;28;20500;-76
2021/12/22 06:40:17;;;;;;;27.05;15.05;;;-3.60;99.90;;;;;;5026717;28;20037;-75
2021/12/22 06:42:43;;;;;;;30.30;15.63;;;-3.70;99.90;;;;;;5021211;28;20053;-76
2021/12/22 06:45:12;;;;;;;30.73;15.77;;;-3.70;99.90;;;;;;5059846;28;20174;-76
2021/12/22 06:47:38;;;;;;;29.80;15.63;;;-3.30;99.90;;;;;;5027977;28;20117;-76
2021/12/22 06:50:07;;;;;;;29.00;16.13;;;-3.50;99.90;;;;;;5019877;28;20172;-76
2021/12/22 06:52:33;;;;;;;24.10;14.00;;;-3.50;99.90;;;;;;5026736;28;21485;-76
2021/12/22 06:54:59;;;;;;;27.92;15.90;;;-3.60;99.90;;;;;;5053122;28;20060;-76
2021/12/22 06:57:25;;;;;;;28.17;15.55;;;-3.60;99.90;;;;;;5022144;28;20406;-77
2021/12/22 06:59:50;;;;;;;28.77;15.93;;;-3.60;99.90;;;;;;5033127;28;20119;-76
2021/12/22 07:02:16;;;;;;;28.92;14.65;;;-3.70;99.90;;;;;;5022155;28;20115;-76
2021/12/22 07:04:42;;;;;;;33.28;16.25;;;-3.60;99.90;;;;;;5026578;28;20036;-76
2021/12/22 07:07:08;;;;;;;32.47;15.18;;;-3.70;99.90;;;;;;5059308;28;20037;-76
2021/12/22 07:09:34;;;;;;;27.65;15.07;;;-3.70;99.90;;;;;;5062464;28;20037;-75
2021/12/22 07:12:00;;;;;;;35.83;16.50;;;-3.70;99.90;;;;;;5036798;28;20048;-76
2021/12/22 07:14:25;;;;;;;29.17;16.08;;;-3.70;99.90;;;;;;5040507;28;20048;-76
2021/12/22 07:16:51;;;;;;;30.45;15.48;;;-3.70;99.90;;;;;;5076476;28;20119;-77
2021/12/22 07:19:17;;;;;;;32.67;15.55;;;-3.50;99.90;;;;;;5019298;28;20077;-76
2021/12/22 07:21:44;;;;;;;35.15;16.98;;;-3.70;99.90;;;;;;5051035;28;20055;-75
2021/12/22 07:24:10;;;;;;;28.65;15.50;;;-3.70;99.90;;;;;;5051284;28;20054;-77
2021/12/22 07:26:37;;;;;;;30.98;16.73;;;-3.70;99.90;;;;;;5024364;28;20123;-78
2021/12/22 07:29:03;;;;;;;32.05;15.85;;;-3.70;99.90;;;;;;5042649;28;21565;-77
2021/12/22 07:31:29;;;;;;;33.50;16.92;;;-3.70;99.90;;;;;;5015312;28;20064;-77
2021/12/22 07:33:55;;;;;;;34.90;15.38;;;-3.70;99.90;;;;;;5055752;28;20060;-77
2021/12/22 07:36:21;;;;;;;36.95;16.08;;;-3.70;99.90;;;;;;5037535;28;20096;-76
2021/12/22 07:39:07;;;;;;;30.92;16.05;;;-3.70;99.90;;;;;;5023926;28;20509;-77
2021/12/22 07:41:32;;;;;;;30.90;15.70;;;-3.70;99.90;;;;;;5024981;28;20105;-76
2021/12/22 07:43:58;;;;;;;31.55;15.98;;;-3.70;99.90;;;;;;5031059;28;20444;-76
2021/12/22 07:46:24;;;;;;;31.38;15.75;;;-3.70;99.90;;;;;;5048293;28;20054;-76
2021/12/22 07:48:49;;;;;;;31.05;15.32;;;-3.60;99.90;;;;;;5050976;28;20074;-76
2021/12/22 07:51:15;;;;;;;31.02;16.40;;;-3.60;99.90;;;;;;4998223;28;20050;-77
2021/12/22 07:53:41;;;;;;;28.42;15.50;;;-3.60;99.90;;;;;;5031893;28;20042;-76
2021/12/22 07:56:07;;;;;;;30.00;15.65;;;-3.60;99.90;;;;;;5015768;28;20065;-76
2021/12/22 07:58:32;;;;;;;29.00;15.35;;;-3.70;99.90;;;;;;5020597;28;20055;-76
2021/12/22 08:00:59;;;;;;;29.90;14.60;;;-3.60;99.90;;;;;;5015849;28;20108;-78
2021/12/22 08:03:25;;;;;;;34.83;16.17;;;-3.60;99.90;;;;;;5053719;28;20045;-79
2021/12/22 08:05:52;;;;;;;28.83;15.45;;;-3.60;99.90;;;;;;4998342;28;20081;-78
2021/12/22 08:08:19;;;;;;;29.60;15.35;;;-3.60;99.90;;;;;;5011051;28;20061;-79
2021/12/22 08:10:46;;;;;;;33.28;15.30;;;-3.60;99.90;;;;;;5015173;28;20099;-76
2021/12/22 08:13:12;;;;;;;29.75;15.68;;;-3.50;99.90;;;;;;5043528;28;20104;-77
2021/12/22 08:15:38;;;;;;;27.13;14.85;;;-3.50;99.90;;;;;;5003549;28;20040;-79
2021/12/22 08:18:03;;;;;;;29.50;15.40;;;-3.50;99.90;;;;;;5063208;28;20443;-78
2021/12/22 08:20:29;;;;;;;31.83;15.48;;;-3.50;99.90;;;;;;5047350;28;20442;-81
2021/12/22 08:22:55;;;;;;;28.42;15.90;;;-3.50;99.90;;;;;;5043396;28;20041;-79
2021/12/22 08:25:21;;;;;;;32.00;15.57;;;-3.40;99.90;;;;;;5030744;28;20106;-80
2021/12/22 08:27:47;;;;;;;28.55;14.60;;;-3.50;99.90;;;;;;5013919;28;20045;-78
2021/12/22 08:30:13;;;;;;;32.20;15.45;;;-3.40;99.90;;;;;;5018598;28;20045;-80
2021/12/22 08:32:40;;;;;;;35.30;16.05;;;-3.40;99.90;;;;;;5010770;28;20073;-78
2021/12/22 08:35:08;;;;;;;32.30;14.70;;;-3.40;99.90;;;;;;5007182;28;20081;-79
2021/12/22 08:40:23;;;;;;;27.83;14.88;;;-3.30;99.90;;;;;;4994688;28;20109;-79
2021/12/22 08:42:49;;;;;;;27.10;15.45;;;-3.20;99.90;;;;;;5021894;28;20158;-78
2021/12/22 08:45:17;;;;;;;28.70;15.27;;;-3.20;99.90;;;;;;5025575;28;20045;-79
2021/12/22 08:47:43;;;;;;;28.95;14.85;;;-3.20;99.90;;;;;;5014875;28;20078;-78
2021/12/22 08:50:11;;;;;;;31.23;15.77;;;-3.10;99.90;;;;;;5033979;28;20069;-78
2021/12/22 08:52:36;;;;;;;30.77;15.10;;;-3.10;99.90;;;;;;5037344;28;20033;-76
2021/12/22 08:55:03;;;;;;;25.60;14.88;;;-3.00;99.90;;;;;;5003901;28;20478;-77
2021/12/22 08:57:29;;;;;;;36.53;15.73;;;-3.00;99.90;;;;;;5023588;28;20061;-78
2021/12/22 08:59:54;;;;;;;33.15;15.30;;;-3.00;99.90;;;;;;4987523;28;20062;-77
2021/12/22 09:02:21;;;;;;;31.27;15.63;;;-2.90;99.90;;;;;;5018202;28;20448;-78
2021/12/22 09:04:47;;;;;;;29.00;15.63;;;-2.90;99.90;;;;;;5033156;28;20045;-76
2021/12/22 09:07:13;;;;;;;31.00;16.48;;;-2.80;99.90;;;;;;5036283;28;20038;-79
2021/12/22 09:09:38;;;;;;;28.98;15.63;;;-2.70;99.90;;;;;;4986497;28;20449;-77
2021/12/22 09:12:08;;;;;;;27.60;15.35;;;-2.70;99.90;;;;;;5033012;28;20052;-77
2021/12/22 09:14:33;;;;;;;28.20;15.25;;;-2.70;99.90;;;;;;5009397;28;20045;-76
2021/12/22 09:17:00;;;;;;;25.08;14.60;;;-2.70;99.90;;;;;;5003892;28;20462;-76
2021/12/22 09:19:26;;;;;;;29.52;15.60;;;-2.60;99.90;;;;;;5018181;28;20049;-76
2021/12/22 09:21:52;;;;;;;35.85;15.88;;;-2.60;99.90;;;;;;5014140;28;20052;-77
2021/12/22 09:24:18;;;;;;;26.10;14.68;;;-2.50;99.90;;;;;;5006319;28;20374;-76
2021/12/22 09:26:44;;;;;;;29.55;15.63;;;-1.40;99.90;;;;;;5008210;28;20045;-76
2021/12/22 09:29:11;;;;;;;32.75;15.38;;;-1.50;99.90;;;;;;5020415;28;20509;-75
2021/12/22 09:31:37;;;;;;;26.02;14.45;;;-1.70;99.90;;;;;;5016995;28;20037;-75
2021/12/22 09:34:03;;;;;;;29.80;15.68;;;-1.80;99.90;;;;;;4994687;28;20060;-74
2021/12/22 09:36:29;;;;;;;29.30;15.48;;;-1.90;99.90;;;;;;5015643;28;20049;-75
2021/12/22 09:38:55;;;;;;;32.30;16.33;;;-1.90;99.90;;;;;;5013228;28;20488;-77
2021/12/22 09:41:21;;;;;;;28.23;15.45;;;-1.90;99.90;;;;;;5039832;28;20049;-75
2021/12/22 09:43:47;;;;;;;30.30;15.02;;;-2.00;99.90;;;;;;5001832;28;20057;-76
2021/12/22 09:46:17;;;;;;;27.23;15.82;;;-1.90;99.90;;;;;;5013695;28;20594;-76
2021/12/22 09:54:05;;;;;;;33.53;16.08;;;-1.90;99.90;;;;;;4988627;28;20112;-75
2021/12/22 09:56:33;;;;;;;29.90;15.20;;;-1.90;99.90;;;;;;4976812;28;20046;-75
2021/12/22 09:58:59;;;;;;;31.08;16.35;;;-1.80;99.90;;;;;;4989068;28;20468;-76
2021/12/22 10:01:25;;;;;;;31.13;16.70;;;-1.80;99.90;;;;;;4987273;28;20169;-75
2021/12/22 10:03:52;;;;;;;34.42;16.15;;;-1.80;99.90;;;;;;4991923;28;20127;-75
2021/12/22 10:06:18;;;;;;;32.88;15.27;;;-1.80;99.90;;;;;;4988077;28;20163;-76
2021/12/22 10:08:57;;;;;;;30.50;15.75;;;-1.70;99.90;;;;;;4959502;28;20459;-75
2021/12/22 10:11:23;;;;;;;30.02;15.45;;;-1.70;99.90;;;;;;4991034;28;20039;-75
2021/12/22 10:13:49;;;;;;;31.83;15.90;;;-1.60;99.90;;;;;;4988734;28;20504;-75
2021/12/22 10:16:21;;;;;;;29.50;15.77;;;-1.50;99.90;;;;;;4972901;28;20370;-75
2021/12/22 10:18:48;;;;;;;30.55;15.80;;;-1.50;99.90;;;;;;4989858;28;20049;-75
2021/12/22 10:21:21;;;;;;;29.92;16.27;;;-1.50;99.90;;;;;;4977461;28;20054;-76
2021/12/22 10:23:52;;;;;;;33.25;15.43;;;-1.50;99.90;;;;;;4986276;28;20156;-77
2021/12/22 10:26:26;;;;;;;37.75;15.57;;;-1.40;99.90;;;;;;5004295;28;20121;-76
2021/12/22 10:28:55;;;;;;;31.10;14.85;;;-1.40;99.90;;;;;;5003835;28;20482;-76
2021/12/22 10:31:31;;;;;;;34.35;16.42;;;-1.30;99.90;;;;;;5003165;28;20045;-77
2021/12/22 10:33:58;;;;;;;30.48;15.50;;;-1.20;99.90;;;;;;5032720;28;20050;-76
2021/12/22 10:36:24;;;;;;;29.90;15.18;;;-1.20;99.90;;;;;;5006370;28;20042;-76
2021/12/22 10:38:59;;;;;;;30.27;15.63;;;-1.10;99.90;;;;;;5016661;28;20333;-77
2021/12/22 10:41:29;;;;;;;28.67;14.98;;;-1.00;99.90;;;;;;5039717;28;20085;-76
2021/12/22 10:43:55;;;;;;;27.10;15.98;;;-0.90;99.90;;;;;;4999872;28;20060;-75
2021/12/22 10:46:31;;;;;;;32.30;15.60;;;-0.90;99.90;;;;;;5029715;28;20137;-76
2021/12/22 10:49:19;;;;;;;27.85;14.75;;;-0.80;99.90;;;;;;5014515;28;20390;-77
2021/12/22 10:52:03;;;;;;;28.05;13.90;;;-0.90;99.90;;;;;;5023393;28;20081;-76
2021/12/22 10:54:39;;;;;;;27.80;14.40;;;-0.80;99.90;;;;;;5038304;28;20156;-76
2021/12/22 10:57:09;;;;;;;25.35;13.35;;;-0.80;99.90;;;;;;4998456;28;20040;-78
2021/12/22 10:59:45;;;;;;;25.58;14.00;;;-0.80;99.90;;;;;;5002681;28;20157;-76
2021/12/22 11:02:18;;;;;;;24.38;13.10;;;-0.70;99.90;;;;;;5036818;28;20045;-77
2021/12/22 11:04:45;;;;;;;27.70;14.10;;;-0.70;99.90;;;;;;5010242;28;20051;-76
2021/12/22 11:07:23;;;;;;;25.98;15.15;;;-0.70;99.90;;;;;;5035212;28;20102;-76
2021/12/22 11:09:50;;;;;;;29.90;13.93;;;-0.60;99.90;;;;;;5035260;28;20061;-76
2021/12/22 11:12:17;;;;;;;31.20;14.18;;;-0.60;99.90;;;;;;5017057;28;20500;-75
2021/12/22 11:14:47;;;;;;;25.92;13.82;;;-0.60;99.90;;;;;;5023453;28;20058;-76
2021/12/22 11:17:19;;;;;;;25.55;13.60;;;-0.60;99.90;;;;;;5040619;28;20061;-77
2021/12/22 11:19:48;;;;;;;26.08;14.35;;;-0.60;99.90;;;;;;5014733;28;20132;-75
2021/12/22 11:22:15;;;;;;;26.90;13.52;;;-0.60;99.90;;;;;;5022624;28;20096;-76
2021/12/22 11:24:48;;;;;;;27.35;13.82;;;-0.60;99.90;;;;;;5003994;28;20053;-76
2021/12/22 11:27:18;;;;;;;23.58;13.63;;;-0.60;99.90;;;;;;5047757;28;20459;-76
2021/12/22 11:29:47;;;;;;;29.80;13.63;;;-0.60;99.90;;;;;;5014587;28;20058;-75
2021/12/22 11:32:17;;;;;;;23.00;13.05;;;-0.60;99.90;;;;;;5016602;28;20144;-76
2021/12/22 11:34:48;;;;;;;25.83;13.35;;;-0.50;99.90;;;;;;5017393;28;20064;-76
2021/12/22 11:37:14;;;;;;;26.27;14.45;;;-0.10;99.90;;;;;;4986231;28;20042;-76
2021/12/22 11:39:41;;;;;;;22.08;13.20;;;-0.40;99.90;;;;;;5011441;28;20057;-75
2021/12/22 11:42:09;;;;;;;25.27;13.60;;;-0.40;99.90;;;;;;5026977;28;20438;-76
2021/12/22 11:44:36;;;;;;;27.48;13.95;;;-0.30;99.90;;;;;;5019244;28;20057;-76
2021/12/22 11:47:06;;;;;;;27.75;14.60;;;-0.30;99.90;;;;;;5017846;28;20046;-76
2021/12/22 11:49:34;;;;;;;25.48;14.55;;;-0.30;99.90;;;;;;5043429;28;20103;-80
2021/12/22 11:52:45;;;;;;;26.98;16.98;;;-0.20;99.90;;;;;;5020854;28;20103;-79
2021/12/22 11:55:19;;;;;;;23.88;12.70;;;-0.20;99.90;;;;;;5028955;28;20144;-79
2021/12/22 11:57:48;;;;;;;27.63;14.80;;;-0.30;99.90;;;;;;5021942;28;20060;-78
2021/12/22 12:00:23;;;;;;;25.10;13.68;;;-0.30;99.90;;;;;;5014583;28;20632;-80
2021/12/22 12:02:49;;;;;;;24.85;14.15;;;-0.30;99.90;;;;;;5024481;28;20048;-78
2021/12/22 12:05:19;;;;;;;22.40;13.55;;;-0.30;99.90;;;;;;5004725;28;20053;-76
2021/12/22 12:07:54;;;;;;;23.15;12.45;;;-0.30;99.90;;;;;;5019089;28;20063;-76
2021/12/22 12:10:43;;;;;;;20.65;12.85;;;-0.20;99.90;;;;;;5007669;28;20496;-77
2021/12/22 12:13:28;;;;;;;23.80;13.02;;;-0.20;99.90;;;;;;5000989;28;20345;-76
2021/12/22 12:21:56;;;;;;;27.63;13.73;;;-0.10;99.90;;;;;;5014890;28;20056;-76
2021/12/22 12:24:31;;;;;;;21.23;13.50;;;-0.20;99.90;;;;;;5013136;28;20072;-75
2021/12/22 12:27:02;;;;;;;23.73;12.88;;;-0.20;99.90;;;;;;5007967;28;20456;-76
2021/12/22 12:29:53;;;;;;;25.20;13.35;;;-0.20;99.90;;;;;;5020342;28;20057;-77
2021/12/22 12:32:59;;;;;;;20.85;12.80;;;-0.20;99.90;;;;;;5022882;28;20038;-78
2021/12/22 12:35:28;;;;;;;22.33;12.57;;;-0.10;99.90;;;;;;4969417;28;20161;-76
2021/12/22 12:38:41;;;;;;;20.83;12.43;;;0.00;99.90;;;;;;4964001;28;20109;-76
2021/12/22 12:41:13;;;;;;;22.52;12.95;;;0.00;99.90;;;;;;4961120;28;20033;-77
2021/12/22 12:46:24;;;;;;;21.75;13.23;;;0.10;99.90;;;;;;4974997;28;20038;-76
2021/12/22 12:49:04;;;;;;;21.35;13.55;;;0.10;99.90;;;;;;4957076;28;20051;-76
2021/12/22 12:51:56;;;;;;;22.65;13.15;;;0.10;99.90;;;;;;4973899;28;20050;-76
2021/12/22 12:54:25;;;;;;;20.88;12.88;;;0.10;99.90;;;;;;4969400;28;20097;-76
2021/12/22 12:56:52;;;;;;;23.30;13.38;;;0.10;99.90;;;;;;4959429;28;20049;-76
2021/12/22 12:59:18;;;;;;;22.60;12.57;;;0.10;99.90;;;;;;4972635;28;20446;-76
2021/12/22 13:01:47;;;;;;;23.88;12.48;;;0.10;99.90;;;;;;4980512;28;20048;-76
2021/12/22 13:04:23;;;;;;;19.20;12.00;;;0.10;99.90;;;;;;4975651;28;20062;-77
2021/12/22 13:06:54;;;;;;;22.70;12.63;;;0.00;99.90;;;;;;4985277;28;20058;-76
2021/12/22 13:09:24;;;;;;;23.58;13.32;;;0.00;99.90;;;;;;5000379;28;20088;-76